Time;durP1;ratioP1;P1;durP2;ratioP2;P2;SDS_P1;SDS_P2;PMS_P1;PMS_P2;Temp;Humidity;BMP_temperature;BMP_pressure;BME280_temperature;BME280_humidity;BME280_pressure;Samples;Min_cycle;Max_cycle;Signal;HPM_P1;HPM_P2
2023/09/19 00:00:21;;;;;;;6.37;3.40;;;18.20;96.90;;;18.57;59.85;95347.19;5021384;28;20472;-59
2023/09/19 00:02:54;;;;;;;4.57;4.27;;;18.20;97.00;;;18.55;60.24;95334.03;5018401;28;20465;-59
2023/09/19 00:05:24;;;;;;;8.00;3.93;;;18.10;97.10;;;18.54;60.91;95337.69;5014005;28;20530;-59
2023/09/19 00:07:54;;;;;;;8.67;3.90;;;18.10;97.40;;;18.56;60.44;95338.38;5016775;28;20445;-59
2023/09/19 00:10:24;;;;;;;4.00;3.70;;;18.20;97.50;;;18.55;60.88;95336.69;5014177;28;20548;-61
2023/09/19 00:12:53;;;;;;;3.80;3.47;;;18.10;97.60;;;18.54;60.26;95336.88;5021405;28;20449;-64
2023/09/19 00:15:21;;;;;;;4.07;3.70;;;18.20;97.50;;;18.53;60.90;95341.38;5018306;28;21148;-65
2023/09/19 00:17:48;;;;;;;10.90;4.77;;;18.10;97.60;;;18.51;61.11;95339.91;5021386;28;20639;-65
2023/09/19 00:20:17;;;;;;;4.30;3.37;;;18.10;97.70;;;18.49;60.71;95329.41;5021026;28;20453;-64
2023/09/19 00:22:44;;;;;;;5.53;3.47;;;18.10;97.80;;;18.48;60.85;95330.41;5021180;28;20591;-63
2023/09/19 00:25:15;;;;;;;4.60;3.90;;;18.10;97.80;;;18.46;60.75;95330.59;5022027;28;20465;-62
2023/09/19 00:27:43;;;;;;;11.90;4.50;;;18.10;97.80;;;18.43;61.30;95320.31;5016368;28;20453;-64
2023/09/19 00:30:15;;;;;;;5.60;3.77;;;18.10;98.00;;;18.41;61.25;95317.00;5018697;28;20535;-60
2023/09/19 00:32:43;;;;;;;4.70;3.80;;;18.10;98.10;;;18.39;61.04;95318.19;5017924;28;20923;-59
2023/09/19 00:35:11;;;;;;;6.60;4.33;;;18.00;98.00;;;18.36;61.35;95323.88;5020586;28;21054;-58
2023/09/19 00:37:40;;;;;;;5.50;3.70;;;18.00;98.30;;;18.33;61.22;95318.91;5017663;28;20552;-59
2023/09/19 00:40:11;;;;;;;11.20;4.00;;;18.00;98.30;;;18.29;61.62;95323.72;5018588;28;20548;-59
2023/09/19 00:42:40;;;;;;;5.30;3.97;;;17.90;98.30;;;18.26;61.93;95324.94;5023784;28;20453;-59
2023/09/19 00:45:11;;;;;;;5.50;3.50;;;17.90;98.30;;;18.23;61.65;95330.59;5016467;28;20482;-63
2023/09/19 00:47:39;;;;;;;3.80;3.50;;;17.90;98.60;;;18.24;61.58;95326.91;5024116;28;20695;-63
2023/09/19 00:50:08;;;;;;;7.00;4.30;;;17.90;98.70;;;18.24;61.83;95332.25;5024133;28;20477;-62
2023/09/19 00:52:38;;;;;;;11.63;3.77;;;17.90;98.70;;;18.25;61.67;95327.78;5022711;28;20974;-64
2023/09/19 00:55:08;;;;;;;5.20;3.90;;;17.90;98.80;;;18.26;62.46;95321.41;5023477;28;21005;-64
2023/09/19 00:57:35;;;;;;;5.83;4.33;;;17.90;99.30;;;18.27;62.53;95320.44;5017290;28;20489;-59
2023/09/19 01:00:07;;;;;;;5.67;4.40;;;17.90;99.30;;;18.30;62.76;95314.75;5023365;28;20468;-64
2023/09/19 01:02:34;;;;;;;12.17;3.90;;;17.90;99.40;;;18.33;62.07;95310.91;5021604;28;20446;-63
2023/09/19 01:05:03;;;;;;;4.57;3.77;;;17.90;99.30;;;18.34;62.41;95313.41;5016512;28;20478;-62
2023/09/19 01:07:31;;;;;;;4.47;4.07;;;17.90;99.10;;;18.34;62.14;95316.06;5018808;28;20461;-64
2023/09/19 01:09:59;;;;;;;5.03;4.10;;;17.90;99.10;;;18.33;62.49;95322.38;5015065;28;20992;-64
2023/09/19 01:12:33;;;;;;;6.03;4.20;;;18.00;99.20;;;18.32;62.09;95330.53;5020398;28;20668;-64
2023/09/19 01:15:05;;;;;;;6.73;4.40;;;17.90;99.30;;;18.34;62.61;95328.53;5019910;28;20499;-63
2023/09/19 01:17:38;;;;;;;5.60;4.70;;;17.90;99.40;;;18.36;62.58;95324.69;5019351;28;20449;-63
2023/09/19 01:20:25;;;;;;;6.03;4.00;;;18.00;99.50;;;18.37;62.75;95329.03;5019747;28;20485;-63
2023/09/19 01:23:03;;;;;;;8.60;4.60;;;18.00;99.70;;;18.40;63.25;95325.16;5016987;28;20489;-64
2023/09/19 01:25:58;;;;;;;4.10;3.80;;;18.00;99.80;;;18.39;62.63;95324.34;5019023;28;20493;-60
2023/09/19 01:28:54;;;;;;;7.20;4.10;;;18.00;99.70;;;18.41;62.62;95326.81;5019465;28;20469;-63
2023/09/19 01:31:23;;;;;;;9.10;4.50;;;18.00;99.70;;;18.41;62.74;95321.50;5016756;28;20500;-59
2023/09/19 01:33:59;;;;;;;5.00;4.60;;;18.00;99.80;;;18.42;62.54;95325.81;5019865;28;21010;-60
2023/09/19 01:36:30;;;;;;;8.97;5.37;;;18.00;99.80;;;18.42;62.73;95323.97;5017354;28;20984;-64
2023/09/19 01:39:00;;;;;;;3.90;3.60;;;18.00;99.80;;;18.42;62.58;95329.31;5018392;28;20477;-64
2023/09/19 01:41:37;;;;;;;4.73;3.90;;;18.00;99.80;;;18.42;63.24;95331.16;5024614;28;20452;-64
2023/09/19 01:44:05;;;;;;;5.23;4.73;;;18.00;99.90;;;18.42;62.56;95323.97;5022794;28;20469;-64
2023/09/19 01:46:36;;;;;;;6.33;5.20;;;18.00;99.70;;;18.40;62.22;95335.81;5018948;28;20548;-59
2023/09/19 01:49:17;;;;;;;7.73;5.53;;;18.00;99.60;;;18.35;62.38;95325.69;5022323;28;20490;-64
2023/09/19 01:51:49;;;;;;;5.63;5.03;;;18.00;99.50;;;18.33;62.16;95334.88;5021218;28;20473;-64
2023/09/19 01:54:21;;;;;;;6.70;5.30;;;18.00;99.50;;;18.28;62.94;95328.22;5017727;28;20470;-59
2023/09/19 01:56:51;;;;;;;5.23;4.17;;;17.90;99.60;;;18.25;62.55;95323.25;5024319;28;20440;-66
2023/09/19 01:59:22;;;;;;;8.43;5.30;;;17.90;99.60;;;18.22;62.42;95323.63;5022282;28;20513;-64
2023/09/19 02:01:51;;;;;;;9.40;5.07;;;17.80;99.50;;;18.18;62.75;95326.81;5021552;28;21044;-58
2023/09/19 02:04:18;;;;;;;6.03;5.07;;;17.80;99.50;;;18.15;62.67;95325.31;5018159;28;20531;-62
2023/09/19 02:06:47;;;;;;;5.67;5.13;;;17.80;99.60;;;18.13;62.37;95330.00;5021752;28;20803;-59
2023/09/19 02:09:15;;;;;;;5.40;4.90;;;17.70;99.50;;;18.09;62.52;95334.84;5023131;28;21036;-60
2023/09/19 02:11:42;;;;;;;5.47;4.90;;;17.70;99.70;;;18.07;62.50;95330.69;5020860;28;20543;-60
2023/09/19 02:14:09;;;;;;;6.37;4.77;;;17.70;99.60;;;18.04;62.39;95325.72;5022904;28;20476;-59
2023/09/19 02:16:37;;;;;;;9.57;5.47;;;17.70;99.70;;;18.03;62.99;95327.56;5020742;28;20461;-59
2023/09/19 02:19:06;;;;;;;8.87;4.90;;;17.70;99.70;;;18.00;63.07;95321.72;5023070;28;20575;-60
2023/09/19 02:21:33;;;;;;;6.17;5.57;;;17.60;99.60;;;17.99;62.80;95322.75;5018157;28;20662;-64
2023/09/19 02:24:00;;;;;;;6.77;6.07;;;17.60;99.80;;;17.96;62.79;95312.47;5019958;28;20474;-59
2023/09/19 02:26:27;;;;;;;5.70;5.00;;;17.60;99.90;;;17.94;63.22;95317.09;5023424;28;20483;-64
2023/09/19 02:28:55;;;;;;;8.00;5.13;;;17.60;99.90;;;17.91;63.37;95316.47;5019254;28;20484;-61
2023/09/19 02:31:22;;;;;;;6.20;4.80;;;17.50;99.90;;;17.89;63.40;95313.16;5022449;28;20528;-64
2023/09/19 02:33:49;;;;;;;5.27;4.53;;;17.50;99.90;;;17.87;62.81;95311.63;5015103;28;20905;-58
2023/09/19 02:36:18;;;;;;;6.60;5.40;;;17.50;99.90;;;17.84;63.46;95309.31;5014200;28;20450;-63
2023/09/19 02:38:46;;;;;;;6.73;5.57;;;17.50;99.90;;;17.79;62.91;95304.53;5020213;28;20495;-64
2023/09/19 02:41:13;;;;;;;9.13;5.27;;;17.50;99.90;;;17.76;63.35;95304.88;5021520;28;20540;-64
2023/09/19 02:43:42;;;;;;;6.30;5.23;;;17.40;99.90;;;17.74;63.26;95301.56;5021857;28;20544;-60
2023/09/19 02:46:11;;;;;;;9.03;4.90;;;17.40;99.90;;;17.71;63.57;95293.94;5018954;28;20516;-65
2023/09/19 02:48:38;;;;;;;6.67;6.00;;;17.40;99.90;;;17.70;63.41;95293.06;5021848;28;20499;-61
2023/09/19 02:51:06;;;;;;;6.63;5.53;;;17.30;99.90;;;17.69;63.53;95293.25;5018718;28;20568;-64
2023/09/19 02:53:35;;;;;;;8.47;5.60;;;17.30;99.90;;;17.68;63.78;95291.59;5018479;28;20463;-61
2023/09/19 02:56:04;;;;;;;6.67;6.00;;;17.30;99.90;;;17.67;63.89;95287.28;5018212;28;20453;-64
2023/09/19 02:58:35;;;;;;;7.67;5.83;;;17.30;99.90;;;17.67;64.10;95284.63;5021940;28;21043;-61
2023/09/19 03:01:11;;;;;;;13.10;5.17;;;17.30;99.90;;;17.66;64.20;95294.44;5014441;28;20524;-60
2023/09/19 03:03:39;;;;;;;6.90;5.53;;;17.30;99.90;;;17.65;63.72;95276.81;5015987;28;20467;-64
2023/09/19 03:06:08;;;;;;;9.03;5.60;;;17.30;99.90;;;17.65;64.22;95281.31;5021247;28;20494;-63
2023/09/19 03:08:39;;;;;;;5.90;5.40;;;17.30;99.90;;;17.64;64.47;95280.47;5018836;28;20552;-63
2023/09/19 03:11:07;;;;;;;5.50;5.00;;;17.30;99.90;;;17.62;63.95;95281.66;5016128;28;20477;-64
2023/09/19 03:13:37;;;;;;;12.17;5.97;;;17.20;99.90;;;17.60;63.66;95273.84;5021453;28;20878;-64
2023/09/19 03:16:05;;;;;;;7.73;5.17;;;17.20;99.90;;;17.59;64.07;95282.81;5019589;28;20705;-60
2023/09/19 03:18:33;;;;;;;7.50;5.23;;;17.20;99.90;;;17.58;64.57;95283.00;5020550;28;20552;-63
2023/09/19 03:21:00;;;;;;;7.70;6.00;;;17.20;99.90;;;17.57;63.95;95271.53;5019194;28;20517;-63
2023/09/19 03:23:28;;;;;;;11.87;5.60;;;17.20;99.90;;;17.56;63.67;95268.03;5017776;28;20522;-64
2023/09/19 03:25:58;;;;;;;8.20;5.80;;;17.20;99.90;;;17.54;64.04;95272.72;5020706;28;20453;-63
2023/09/19 03:28:26;;;;;;;8.67;6.30;;;17.20;99.90;;;17.52;64.11;95274.72;4970473;28;1282885;-64
2023/09/19 03:31:03;;;;;;;6.23;5.20;;;17.20;99.90;;;17.50;63.71;95282.03;5021147;28;20545;-65
2023/09/19 03:33:32;;;;;;;6.93;5.53;;;17.10;99.90;;;17.47;64.11;95286.88;5020585;28;20461;-63
2023/09/19 03:36:00;;;;;;;12.90;5.70;;;17.10;99.90;;;17.45;63.86;95288.88;5020048;28;20548;-63
2023/09/19 03:38:28;;;;;;;9.97;6.53;;;17.10;99.90;;;17.44;63.80;95295.19;5020988;28;20453;-63
2023/09/19 03:40:57;;;;;;;6.93;5.10;;;17.10;99.90;;;17.41;64.24;95295.53;5022606;28;20445;-64
2023/09/19 03:43:24;;;;;;;7.70;5.60;;;17.10;99.90;;;17.38;64.50;95288.72;5020343;28;20472;-60
2023/09/19 03:45:54;;;;;;;12.07;6.00;;;17.10;99.90;;;17.38;64.50;95297.53;5017979;28;20452;-64
2023/09/19 03:48:22;;;;;;;9.60;5.03;;;17.00;99.90;;;17.35;64.02;95300.53;5020919;28;20531;-64
2023/09/19 03:50:51;;;;;;;13.20;6.27;;;17.00;99.90;;;17.34;64.70;95295.41;5019513;28;20965;-63
2023/09/19 03:53:18;;;;;;;6.20;5.50;;;17.00;99.90;;;17.31;64.13;95293.91;5020591;28;20496;-58
2023/09/19 03:55:47;;;;;;;6.20;5.60;;;17.00;99.90;;;17.28;64.28;95299.56;5019833;28;20996;-64
2023/09/19 03:58:15;;;;;;;7.93;6.30;;;16.90;99.90;;;17.26;64.35;95296.25;5020375;28;20532;-65
2023/09/19 04:00:43;;;;;;;6.50;5.20;;;16.90;99.90;;;17.24;64.79;95300.88;5019791;28;20484;-59
2023/09/19 04:03:19;;;;;;;7.77;5.43;;;16.90;99.90;;;17.22;64.35;95305.56;5017621;28;20453;-60
2023/09/19 04:05:46;;;;;;;8.33;6.23;;;16.90;99.90;;;17.19;64.42;95311.22;5018726;28;20441;-61
2023/09/19 04:08:14;;;;;;;6.87;5.53;;;16.90;99.90;;;17.19;64.86;95313.88;5020930;28;20484;-64
2023/09/19 04:10:45;;;;;;;7.27;5.23;;;16.90;99.90;;;17.18;65.06;95321.03;5018545;28;21025;-63
2023/09/19 04:13:12;;;;;;;6.80;6.10;;;16.80;99.90;;;17.18;64.90;95310.41;5021109;28;20499;-63
2023/09/19 04:15:41;;;;;;;10.10;6.80;;;16.80;99.90;;;17.17;64.63;95310.56;5018356;28;21025;-61
2023/09/19 04:18:08;;;;;;;15.47;7.50;;;16.80;99.90;;;17.18;65.33;95310.41;5021052;28;20541;-63
2023/09/19 04:20:35;;;;;;;11.57;7.63;;;16.80;99.90;;;17.18;64.96;95313.06;5016196;28;20534;-63
2023/09/19 04:23:04;;;;;;;8.03;6.10;;;16.80;99.90;;;17.19;65.27;95304.06;5018704;28;20957;-60
2023/09/19 04:25:31;;;;;;;14.43;7.00;;;16.80;99.90;;;17.20;65.26;95302.25;5020227;28;20465;-59
2023/09/19 04:27:59;;;;;;;13.07;7.47;;;16.80;99.90;;;17.23;64.97;95303.72;5018782;28;20544;-60
2023/09/19 04:30:27;;;;;;;20.43;6.73;;;16.90;99.90;;;17.27;65.10;95299.72;5020369;28;20489;-60
2023/09/19 04:32:55;;;;;;;7.70;6.47;;;16.90;99.90;;;17.28;65.30;95304.06;5018719;28;20531;-62
2023/09/19 04:35:23;;;;;;;7.23;6.53;;;16.90;99.90;;;17.29;65.40;95293.25;5018037;28;20470;-63
2023/09/19 04:37:50;;;;;;;9.67;7.00;;;16.90;99.90;;;17.31;65.55;95295.75;5010185;28;20458;-63
2023/09/19 04:40:19;;;;;;;16.70;6.90;;;17.00;99.90;;;17.34;65.04;95303.38;5010304;28;20477;-60
2023/09/19 04:42:46;;;;;;;10.13;6.60;;;17.00;99.90;;;17.37;65.64;95297.72;5014647;28;20468;-63
2023/09/19 04:45:14;;;;;;;17.73;7.53;;;17.00;99.90;;;17.40;65.10;95292.06;5009981;28;20500;-64
2023/09/19 04:47:43;;;;;;;14.83;8.10;;;17.00;99.90;;;17.42;65.14;95294.53;5019010;28;20449;-59
2023/09/19 04:50:13;;;;;;;13.10;8.23;;;17.00;99.90;;;17.43;64.62;95298.84;5009098;28;20477;-61
2023/09/19 04:52:43;;;;;;;17.83;7.10;;;17.10;99.90;;;17.42;64.78;95290.03;5010330;28;20576;-59
2023/09/19 04:55:16;;;;;;;9.83;6.77;;;17.10;99.90;;;17.44;65.21;95300.50;5010381;28;20793;-63
2023/09/19 04:57:45;;;;;;;9.83;7.17;;;17.10;99.90;;;17.45;64.58;95288.88;5008474;28;20449;-64
2023/09/19 05:00:14;;;;;;;12.80;8.13;;;17.10;99.90;;;17.51;64.43;95294.31;5014433;28;20570;-59
2023/09/19 05:02:42;;;;;;;11.27;8.33;;;17.10;99.90;;;17.63;64.71;95294.78;5009803;28;20458;-59
2023/09/19 05:05:14;;;;;;;11.83;5.83;;;17.30;99.90;;;17.77;64.35;95287.91;5016721;28;20571;-63
2023/09/19 05:07:42;;;;;;;16.73;7.23;;;17.40;99.90;;;17.88;63.99;95286.69;5017626;28;20476;-62
2023/09/19 05:10:11;;;;;;;9.50;7.00;;;17.50;99.90;;;17.96;63.61;95289.31;5013597;28;20713;-63
2023/09/19 05:12:38;;;;;;;16.13;8.80;;;17.60;99.90;;;18.03;63.61;95292.97;5012020;28;20489;-64
2023/09/19 05:15:07;;;;;;;9.20;7.33;;;17.70;99.90;;;18.12;63.94;95296.38;5016307;28;20549;-67
2023/09/19 05:17:35;;;;;;;32.27;7.87;;;17.80;99.90;;;18.20;63.54;95292.84;5018526;28;20545;-58
2023/09/19 05:20:15;;;;;;;15.77;7.93;;;17.80;99.90;;;18.31;63.80;95288.94;5016565;28;21083;-64
2023/09/19 05:22:44;;;;;;;19.07;7.00;;;17.90;99.90;;;18.42;63.36;95293.88;5016130;28;20449;-59
2023/09/19 05:25:15;;;;;;;10.20;7.90;;;18.00;99.90;;;18.55;63.46;95296.75;5013564;28;20893;-66
2023/09/19 05:27:43;;;;;;;13.17;7.10;;;18.10;99.90;;;18.67;63.10;95298.97;5017310;28;20449;-58
2023/09/19 05:30:14;;;;;;;11.03;7.33;;;18.20;99.90;;;18.77;63.28;95289.72;5015279;28;20563;-59
2023/09/19 05:32:41;;;;;;;17.77;7.60;;;18.30;99.90;;;18.85;62.97;95296.03;5018931;28;20488;-58
2023/09/19 05:35:10;;;;;;;10.03;7.63;;;18.40;99.90;;;18.91;62.47;95285.47;5016865;28;20597;-62
2023/09/19 05:37:38;;;;;;;14.10;6.57;;;18.50;99.90;;;18.97;62.24;95283.91;5021055;28;20457;-66
2023/09/19 05:40:11;;;;;;;14.03;7.83;;;18.50;99.90;;;19.01;62.31;95277.22;5021812;28;20617;-63
2023/09/19 05:42:41;;;;;;;12.97;6.63;;;18.60;99.90;;;19.04;62.03;95281.34;5020486;28;20476;-65
2023/09/19 05:45:12;;;;;;;18.87;7.70;;;18.60;99.90;;;19.13;62.41;95281.09;5016039;28;20547;-65
2023/09/19 05:47:40;;;;;;;15.77;6.70;;;18.70;99.90;;;19.27;62.68;95278.59;5021783;28;20454;-59
2023/09/19 05:50:09;;;;;;;13.17;6.90;;;18.80;99.90;;;19.42;62.67;95276.75;5019766;28;21053;-65
2023/09/19 05:52:37;;;;;;;10.60;7.43;;;18.90;99.90;;;19.57;62.39;95275.94;5029992;28;21028;-59
2023/09/19 05:55:07;;;;;;;11.20;7.17;;;19.10;99.90;;;19.75;62.17;95283.53;5016178;28;20551;-59
2023/09/19 05:57:36;;;;;;;18.23;7.87;;;19.30;99.90;;;19.91;61.78;95275.34;5020770;28;20454;-58
2023/09/19 06:00:08;;;;;;;13.70;7.43;;;19.40;99.90;;;20.05;61.62;95271.81;5017359;28;20476;-58
2023/09/19 06:02:37;;;;;;;14.80;6.40;;;19.60;99.90;;;20.21;61.12;95269.91;5016081;28;20479;-58
2023/09/19 06:05:09;;;;;;;18.10;7.03;;;19.70;99.80;;;20.35;60.74;95265.53;5020060;28;20480;-59
2023/09/19 06:07:37;;;;;;;13.80;7.60;;;19.90;99.60;;;20.46;60.32;95261.53;5016723;28;20527;-64
2023/09/19 06:10:07;;;;;;;19.00;7.17;;;20.00;99.20;;;20.54;60.06;95269.41;5016149;28;20508;-64
2023/09/19 06:12:39;;;;;;;9.10;7.13;;;20.10;98.80;;;20.62;59.79;95261.28;5012893;28;20880;-65
2023/09/19 06:15:08;;;;;;;12.57;7.77;;;20.10;98.80;;;20.73;59.81;95258.09;5018761;28;20477;-64
2023/09/19 06:17:37;;;;;;;11.37;7.30;;;20.20;98.80;;;20.88;59.53;95259.84;5019504;28;20616;-59
2023/09/19 06:20:12;;;;;;;10.27;6.37;;;20.40;98.70;;;21.07;59.26;95259.16;5019908;28;21033;-58
2023/09/19 06:22:41;;;;;;;11.43;6.53;;;20.50;98.50;;;21.29;59.38;95253.75;5021590;28;20510;-59
2023/09/19 06:25:11;;;;;;;14.77;7.00;;;20.70;98.30;;;21.54;59.08;95253.28;5020809;28;20466;-59
2023/09/19 06:27:42;;;;;;;8.83;6.33;;;21.00;98.10;;;21.80;57.93;95250.72;5020916;28;20465;-59
2023/09/19 06:30:11;;;;;;;16.07;6.57;;;21.20;97.70;;;22.03;57.20;95254.94;5021530;28;21018;-65
2023/09/19 06:32:38;;;;;;;14.83;5.63;;;21.50;97.10;;;22.17;56.90;95259.28;5021179;28;20911;-65
2023/09/19 06:35:08;;;;;;;9.53;5.70;;;21.60;96.60;;;22.37;56.33;95255.88;5013851;28;20555;-65
2023/09/19 06:37:38;;;;;;;12.30;6.73;;;21.80;96.30;;;22.54;56.03;95254.44;5015252;28;20481;-64
2023/09/19 06:40:09;;;;;;;6.40;5.77;;;22.00;96.10;;;22.71;55.56;95259.38;5018260;28;20554;-64
2023/09/19 06:42:38;;;;;;;14.33;6.57;;;22.10;95.60;;;22.82;55.78;95253.41;5018115;28;20472;-64
2023/09/19 06:45:11;;;;;;;14.80;6.23;;;22.30;95.20;;;22.93;55.34;95257.31;5016608;28;20524;-59
2023/09/19 06:47:38;;;;;;;10.00;5.70;;;22.40;94.80;;;23.01;55.17;95258.97;5017443;28;20465;-65
2023/09/19 06:50:09;;;;;;;9.03;6.20;;;22.50;94.30;;;23.07;54.82;95253.59;5016215;28;20863;-57
2023/09/19 06:52:36;;;;;;;9.27;6.13;;;22.60;94.10;;;23.15;54.21;95254.44;5011099;28;21065;-65
2023/09/19 06:55:06;;;;;;;4.87;4.47;;;22.60;93.90;;;23.22;54.35;95253.41;5017921;28;20488;-63
2023/09/19 06:57:33;;;;;;;13.10;5.00;;;22.80;93.40;;;23.26;53.62;95262.66;5019439;28;20441;-60
2023/09/19 07:00:01;;;;;;;11.53;4.40;;;22.80;93.00;;;23.29;53.91;95261.44;5019192;28;20516;-59
2023/09/19 07:02:30;;;;;;;5.83;4.73;;;22.80;92.70;;;23.34;53.93;95264.31;5014105;28;20548;-64
2023/09/19 07:04:57;;;;;;;5.00;4.20;;;22.80;92.40;;;23.40;53.63;95266.16;5015204;28;20478;-65
2023/09/19 07:07:24;;;;;;;6.87;4.40;;;22.90;92.40;;;23.42;52.71;95271.31;5014817;28;20958;-59
2023/09/19 07:09:54;;;;;;;5.67;4.60;;;23.00;91.90;;;23.37;52.24;95258.50;5015365;28;20482;-64
2023/09/19 07:12:21;;;;;;;6.60;3.93;;;22.90;91.50;;;23.37;53.05;95266.56;5016566;28;20583;-64
2023/09/19 07:14:48;;;;;;;10.73;4.90;;;22.90;91.50;;;23.41;52.13;95269.69;5015195;28;20909;-64
2023/09/19 07:17:17;;;;;;;6.40;4.10;;;22.90;91.40;;;23.45;52.50;95265.50;5018298;28;20918;-59
2023/09/19 07:19:48;;;;;;;12.33;5.10;;;23.00;91.40;;;23.38;52.44;95265.53;5021311;28;20457;-62
2023/09/19 07:22:15;;;;;;;9.83;5.70;;;22.90;90.80;;;23.26;52.44;95268.03;5018147;28;20521;-59
2023/09/19 07:24:43;;;;;;;14.43;4.93;;;22.80;90.50;;;23.20;52.58;95268.88;5016539;28;20518;-58
2023/09/19 07:27:10;;;;;;;8.10;4.50;;;22.70;90.70;;;23.18;52.22;95262.88;5006917;28;20473;-63
2023/09/19 07:29:38;;;;;;;10.57;5.00;;;22.70;90.80;;;23.19;51.94;95272.59;5007549;28;20515;-62
2023/09/19 07:32:10;;;;;;;10.83;4.80;;;22.70;90.80;;;23.18;52.51;95275.50;5015873;28;20552;-58
2023/09/19 07:34:38;;;;;;;8.30;4.80;;;22.70;90.70;;;23.13;51.94;95276.13;5024524;28;20476;-66
2023/09/19 07:37:07;;;;;;;7.17;4.70;;;22.60;90.60;;;23.12;52.21;95276.31;5022316;28;20460;-65
2023/09/19 07:39:35;;;;;;;20.40;5.87;;;22.60;90.70;;;23.13;52.06;95276.13;5012236;28;20476;-65
2023/09/19 07:42:02;;;;;;;11.57;5.90;;;22.60;90.80;;;23.19;52.35;95277.13;5016618;28;20986;-60
2023/09/19 07:44:30;;;;;;;12.80;6.30;;;22.70;91.00;;;23.28;52.32;95275.88;5014072;28;20487;-64
2023/09/19 07:46:57;;;;;;;6.20;5.60;;;22.80;90.90;;;23.35;52.56;95270.50;5013182;28;20467;-59
2023/09/19 07:49:24;;;;;;;13.10;5.80;;;22.80;90.80;;;23.40;52.42;95278.75;5012206;28;20481;-64
2023/09/19 07:51:52;;;;;;;8.27;5.43;;;22.90;90.60;;;23.46;52.17;95272.53;5016394;28;20454;-60
2023/09/19 07:54:21;;;;;;;11.13;5.27;;;23.00;90.40;;;23.59;52.02;95272.53;5014943;28;20493;-60
2023/09/19 07:56:48;;;;;;;16.27;6.73;;;23.10;90.60;;;23.71;52.20;95269.97;5016322;28;20461;-61
2023/09/19 07:59:16;;;;;;;11.57;6.10;;;23.20;90.40;;;23.83;52.27;95270.16;5016829;28;21669;-65
2023/09/19 08:01:44;;;;;;;12.10;6.27;;;23.30;90.30;;;23.99;52.16;95253.56;5017933;28;20456;-59
2023/09/19 08:04:11;;;;;;;8.03;5.23;;;23.50;90.20;;;24.14;51.58;95247.09;5019314;28;20507;-66
2023/09/19 08:06:39;;;;;;;12.90;5.37;;;23.60;90.00;;;24.31;51.11;95245.53;5016752;28;20454;-60
2023/09/19 08:09:07;;;;;;;17.17;6.00;;;23.80;89.50;;;24.45;50.84;95245.47;5012976;28;20481;-66
2023/09/19 08:11:36;;;;;;;9.30;6.27;;;23.90;88.90;;;24.55;50.46;95244.97;5017561;28;20501;-59
2023/09/19 08:14:05;;;;;;;10.40;5.90;;;24.10;87.70;;;24.58;49.67;95241.88;5019887;28;20528;-65
2023/09/19 08:16:32;;;;;;;10.10;5.17;;;24.10;86.20;;;24.60;49.83;95245.16;5016620;28;20580;-60
2023/09/19 08:19:00;;;;;;;5.20;4.70;;;24.20;85.20;;;24.66;49.49;95238.91;5012296;28;20480;-66
2023/09/19 08:21:29;;;;;;;7.10;5.20;;;24.30;84.40;;;24.79;49.37;95240.69;5019137;28;20449;-65
2023/09/19 08:23:57;;;;;;;11.57;5.10;;;24.40;84.50;;;24.95;49.48;95237.44;5019843;28;20472;-65
2023/09/19 08:26:24;;;;;;;10.80;5.37;;;24.50;84.60;;;25.11;49.16;95243.28;5019458;28;20957;-65
2023/09/19 08:28:53;;;;;;;6.83;4.33;;;24.70;83.20;;;25.21;48.33;95241.75;5019555;28;20484;-65
2023/09/19 08:31:20;;;;;;;7.97;5.30;;;24.70;82.60;;;25.40;48.19;95248.00;5019496;28;20548;-64
2023/09/19 08:33:49;;;;;;;15.93;5.77;;;24.90;82.70;;;25.61;47.86;95253.16;5017478;28;20562;-60
2023/09/19 08:36:16;;;;;;;5.40;4.53;;;25.10;81.50;;;25.75;47.40;95243.91;5018066;28;20507;-61
2023/09/19 08:38:44;;;;;;;8.37;5.10;;;25.20;80.40;;;25.95;47.28;95243.66;5013624;28;21036;-65
2023/09/19 08:41:12;;;;;;;7.70;4.50;;;25.40;81.10;;;26.11;46.71;95247.63;5016135;28;21000;-64
2023/09/19 08:43:40;;;;;;;9.53;4.70;;;25.60;79.10;;;26.21;45.45;95241.66;5021389;28;20455;-59
2023/09/19 08:46:12;;;;;;;15.87;4.50;;;25.70;76.40;;;26.14;46.33;95232.88;5015576;28;20556;-60
2023/09/19 08:48:45;;;;;;;8.33;5.00;;;25.70;77.00;;;26.03;46.73;95226.38;5015907;28;20449;-65
2023/09/19 08:51:22;;;;;;;8.77;5.93;;;25.60;76.90;;;25.90;46.18;95224.63;5017161;28;20449;-65
2023/09/19 08:53:55;;;;;;;6.67;4.90;;;25.50;77.00;;;25.81;46.80;95228.69;5015673;28;21236;-60
2023/09/19 08:56:23;;;;;;;7.80;5.43;;;25.40;77.50;;;25.80;46.76;95227.06;5013643;28;20452;-64
2023/09/19 08:58:53;;;;;;;5.70;5.20;;;25.30;77.50;;;25.76;46.66;95226.66;5019903;28;20484;-64
2023/09/19 09:01:24;;;;;;;13.27;5.47;;;25.20;77.30;;;25.71;46.58;95235.41;5016157;28;20536;-61
2023/09/19 09:03:52;;;;;;;11.77;5.03;;;25.20;77.10;;;25.74;46.82;95228.78;5019417;28;20874;-61
2023/09/19 09:06:20;;;;;;;7.10;4.67;;;25.20;77.60;;;25.77;47.32;95226.44;5020205;28;20460;-61
2023/09/19 09:08:48;;;;;;;9.43;5.53;;;25.20;77.50;;;25.82;46.84;95225.75;5020485;28;20520;-60
2023/09/19 09:11:17;;;;;;;5.57;5.00;;;25.20;77.30;;;25.84;46.64;95223.69;5018563;28;20524;-64
2023/09/19 09:13:44;;;;;;;6.90;4.67;;;25.30;76.90;;;25.84;46.47;95222.84;5020657;28;20524;-63
2023/09/19 09:16:12;;;;;;;9.40;5.10;;;25.30;76.60;;;25.90;46.55;95219.22;5015923;28;20459;-63
2023/09/19 09:18:41;;;;;;;12.00;5.33;;;25.30;76.80;;;25.94;45.96;95215.84;5014060;28;20461;-64
2023/09/19 09:21:08;;;;;;;10.00;5.40;;;25.40;76.20;;;25.90;45.76;95209.28;5023960;28;20451;-58
2023/09/19 09:23:36;;;;;;;6.67;5.53;;;25.40;75.50;;;25.85;45.91;95208.31;5016480;28;20468;-60
2023/09/19 09:26:05;;;;;;;12.30;5.83;;;25.30;75.20;;;25.77;46.09;95210.25;5013339;28;21008;-61
2023/09/19 09:28:35;;;;;;;11.43;4.83;;;25.30;75.40;;;25.71;46.22;95205.78;5022129;28;20852;-62
2023/09/19 09:31:07;;;;;;;8.63;5.80;;;25.20;75.50;;;25.66;46.17;95194.06;5020794;28;20457;-63
2023/09/19 09:33:35;;;;;;;13.60;5.50;;;25.20;75.60;;;25.65;46.60;95192.41;5020013;28;21057;-60
2023/09/19 09:36:06;;;;;;;9.93;6.10;;;25.10;75.80;;;25.67;46.24;95185.75;5021961;28;20453;-59
2023/09/19 09:38:45;;;;;;;9.30;5.53;;;25.10;75.80;;;25.75;45.91;95182.72;5014830;28;20457;-60
2023/09/19 09:41:15;;;;;;;10.30;5.67;;;25.20;75.30;;;25.84;46.23;95182.41;5018240;28;20873;-57
2023/09/19 09:43:46;;;;;;;9.47;5.83;;;25.30;76.20;;;25.84;45.60;95180.56;5019858;28;20468;-60
2023/09/19 09:49:16;;;;;;;11.03;6.00;;;25.30;74.90;;;25.92;45.81;95179.41;4981574;28;20530;-58
2023/09/19 09:51:48;;;;;;;17.63;5.93;;;25.40;74.70;;;25.86;45.52;95188.41;5013055;28;20485;-59
2023/09/19 09:54:17;;;;;;;9.50;5.20;;;25.40;74.50;;;25.76;45.81;95189.78;5020935;28;20549;-59
2023/09/19 09:56:58;;;;;;;5.90;5.20;;;25.30;74.40;;;25.68;45.37;95182.00;5017231;28;20489;-60
2023/09/19 09:59:51;;;;;;;20.00;6.00;;;25.20;74.20;;;25.56;45.85;95170.31;5018735;28;20489;-59
2023/09/19 10:02:24;;;;;;;7.53;6.03;;;25.10;74.20;;;25.51;46.21;95172.88;5018472;28;20547;-60
2023/09/19 10:05:08;;;;;;;16.70;5.97;;;25.00;74.50;;;25.48;46.58;95171.47;5025083;28;21016;-60
2023/09/19 10:07:40;;;;;;;7.07;5.60;;;25.00;74.90;;;25.41;46.60;95168.84;5015695;28;20479;-59
2023/09/19 10:10:15;;;;;;;12.33;5.40;;;24.90;74.80;;;25.41;46.81;95170.72;5008472;28;21009;-60
2023/09/19 10:12:47;;;;;;;6.20;5.27;;;24.90;75.30;;;25.37;46.33;95164.94;5012527;28;20464;-61
2023/09/19 10:15:16;;;;;;;27.47;5.53;;;24.90;75.00;;;25.33;46.68;95161.09;5021522;28;20496;-58
2023/09/19 10:17:45;;;;;;;13.17;5.20;;;24.80;75.20;;;25.29;46.42;95167.97;5012382;28;20961;-66
2023/09/19 10:20:33;;;;;;;11.03;5.23;;;24.80;75.40;;;25.36;46.76;95167.88;5018164;28;20532;-65
2023/09/19 10:23:09;;;;;;;7.40;5.37;;;24.80;75.90;;;25.45;46.46;95171.09;5015857;28;20456;-66
2023/09/19 10:25:38;;;;;;;8.67;5.10;;;24.90;75.90;;;25.46;46.32;95173.56;5022997;28;20483;-66
2023/09/19 10:28:10;;;;;;;7.33;4.70;;;24.90;75.40;;;25.38;46.52;95174.69;5019025;28;20468;-65
2023/09/19 10:30:42;;;;;;;9.37;4.97;;;24.90;75.10;;;25.36;46.35;95167.88;5019388;28;21029;-60